sensor_id;sensor_type;location;lat;lon;timestamp;temperature;humidity
4699;DHT22;33708;49.466;11.176;2023-06-14T00:00:41;14.90;1.00
4699;DHT22;33708;49.466;11.176;2023-06-14T00:03:08;15.00;1.00
4699;DHT22;33708;49.466;11.176;2023-06-14T00:05:38;15.00;1.00
4699;DHT22;33708;49.466;11.176;2023-06-14T00:08:07;15.00;1.00
4699;DHT22;33708;49.466;11.176;2023-06-14T00:10:34;15.00;1.00
4699;DHT22;33708;49.466;11.176;2023-06-14T00:13:01;14.90;1.00
4699;DHT22;33708;49.466;11.176;2023-06-14T00:15:27;15.00;1.00
4699;DHT22;33708;49.466;11.176;2023-06-14T00:17:53;15.00;1.00
4699;DHT22;33708;49.466;11.176;2023-06-14T00:20:20;15.10;1.00
4699;DHT22;33708;49.466;11.176;2023-06-14T00:22:46;15.00;1.00
4699;DHT22;33708;49.466;11.176;2023-06-14T00:25:11;15.10;1.00
4699;DHT22;33708;49.466;11.176;2023-06-14T00:27:40;15.00;1.00
4699;DHT22;33708;49.466;11.176;2023-06-14T00:30:06;14.90;1.00
4699;DHT22;33708;49.466;11.176;2023-06-14T00:32:32;14.90;1.00
4699;DHT22;33708;49.466;11.176;2023-06-14T00:34:58;14.80;1.00
4699;DHT22;33708;49.466;11.176;2023-06-14T00:37:23;14.70;1.00
4699;DHT22;33708;49.466;11.176;2023-06-14T00:39:49;14.70;1.00
4699;DHT22;33708;49.466;11.176;2023-06-14T00:42:28;14.60;1.00
4699;DHT22;33708;49.466;11.176;2023-06-14T00:45:03;14.60;1.00
4699;DHT22;33708;49.466;11.176;2023-06-14T00:47:39;14.50;1.00
4699;DHT22;33708;49.466;11.176;2023-06-14T00:50:07;14.40;1.00
4699;DHT22;33708;49.466;11.176;2023-06-14T00:52:33;14.20;1.00
4699;DHT22;33708;49.466;11.176;2023-06-14T00:55:00;14.20;1.00
4699;DHT22;33708;49.466;11.176;2023-06-14T00:57:26;14.10;1.00
4699;DHT22;33708;49.466;11.176;2023-06-14T00:59:52;14.00;1.00
4699;DHT22;33708;49.466;11.176;2023-06-14T01:02:18;13.90;1.00
4699;DHT22;33708;49.466;11.176;2023-06-14T01:05:16;13.90;1.00
4699;DHT22;33708;49.466;11.176;2023-06-14T01:11:14;14.00;1.00
4699;DHT22;33708;49.466;11.176;2023-06-14T01:13:55;14.00;1.00
4699;DHT22;33708;49.466;11.176;2023-06-14T01:16:21;14.00;1.00
4699;DHT22;33708;49.466;11.176;2023-06-14T01:18:47;13.90;1.00
4699;DHT22;33708;49.466;11.176;2023-06-14T01:21:24;13.90;1.00
4699;DHT22;33708;49.466;11.176;2023-06-14T01:23:51;14.00;1.00
4699;DHT22;33708;49.466;11.176;2023-06-14T01:26:19;14.00;1.00
4699;DHT22;33708;49.466;11.176;2023-06-14T01:28:46;14.10;1.00
4699;DHT22;33708;49.466;11.176;2023-06-14T01:31:17;14.10;1.00
4699;DHT22;33708;49.466;11.176;2023-06-14T01:33:43;14.10;1.00
4699;DHT22;33708;49.466;11.176;2023-06-14T01:36:09;14.00;1.00
4699;DHT22;33708;49.466;11.176;2023-06-14T01:38:36;14.00;1.00
4699;DHT22;33708;49.466;11.176;2023-06-14T01:41:02;14.00;1.00
4699;DHT22;33708;49.466;11.176;2023-06-14T01:43:31;13.90;1.00
4699;DHT22;33708;49.466;11.176;2023-06-14T01:45:57;13.90;1.00
4699;DHT22;33708;49.466;11.176;2023-06-14T01:48:23;13.90;1.00
4699;DHT22;33708;49.466;11.176;2023-06-14T01:50:49;13.90;1.00
4699;DHT22;33708;49.466;11.176;2023-06-14T01:53:15;14.00;1.00
4699;DHT22;33708;49.466;11.176;2023-06-14T01:55:41;14.00;1.00
4699;DHT22;33708;49.466;11.176;2023-06-14T01:58:09;14.00;1.00
4699;DHT22;33708;49.466;11.176;2023-06-14T02:00:34;14.00;1.00
4699;DHT22;33708;49.466;11.176;2023-06-14T02:03:00;14.00;1.00
4699;DHT22;33708;49.466;11.176;2023-06-14T02:05:26;13.90;1.00
4699;DHT22;33708;49.466;11.176;2023-06-14T02:07:52;13.90;1.00
4699;DHT22;33708;49.466;11.176;2023-06-14T02:10:18;14.00;1.00
4699;DHT22;33708;49.466;11.176;2023-06-14T02:12:44;14.00;1.00
4699;DHT22;33708;49.466;11.176;2023-06-14T02:15:10;13.90;1.00
4699;DHT22;33708;49.466;11.176;2023-06-14T02:17:42;14.00;1.00
4699;DHT22;33708;49.466;11.176;2023-06-14T02:20:08;12.80;1.00
4699;DHT22;33708;49.466;11.176;2023-06-14T02:22:34;13.80;1.00
4699;DHT22;33708;49.466;11.176;2023-06-14T02:25:00;13.70;1.00
4699;DHT22;33708;49.466;11.176;2023-06-14T02:27:26;13.70;1.00
4699;DHT22;33708;49.466;11.176;2023-06-14T02:29:51;13.60;1.00
4699;DHT22;33708;49.466;11.176;2023-06-14T02:32:17;13.50;1.00
4699;DHT22;33708;49.466;11.176;2023-06-14T02:34:43;13.50;1.00
4699;DHT22;33708;49.466;11.176;2023-06-14T02:37:08;13.60;1.00
4699;DHT22;33708;49.466;11.176;2023-06-14T02:39:34;13.50;1.00
4699;DHT22;33708;49.466;11.176;2023-06-14T02:42:00;13.50;1.00
4699;DHT22;33708;49.466;11.176;2023-06-14T02:44:26;13.40;1.00
4699;DHT22;33708;49.466;11.176;2023-06-14T02:46:53;13.50;1.00
4699;DHT22;33708;49.466;11.176;2023-06-14T02:49:19;13.40;1.00
4699;DHT22;33708;49.466;11.176;2023-06-14T02:51:45;13.40;1.00
4699;DHT22;33708;49.466;11.176;2023-06-14T02:54:10;13.30;1.00
4699;DHT22;33708;49.466;11.176;2023-06-14T02:56:36;13.30;1.00
4699;DHT22;33708;49.466;11.176;2023-06-14T02:59:02;13.30;1.00
4699;DHT22;33708;49.466;11.176;2023-06-14T03:01:27;13.30;1.00
4699;DHT22;33708;49.466;11.176;2023-06-14T03:04:01;13.30;1.00
4699;DHT22;33708;49.466;11.176;2023-06-14T03:06:28;13.20;1.00
4699;DHT22;33708;49.466;11.176;2023-06-14T03:08:59;13.20;1.00
4699;DHT22;33708;49.466;11.176;2023-06-14T03:11:25;13.20;1.00
4699;DHT22;33708;49.466;11.176;2023-06-14T03:13:51;13.20;1.00
4699;DHT22;33708;49.466;11.176;2023-06-14T03:16:17;13.10;1.00
4699;DHT22;33708;49.466;11.176;2023-06-14T03:18:50;13.20;1.00
4699;DHT22;33708;49.466;11.176;2023-06-14T03:21:16;13.20;1.00
4699;DHT22;33708;49.466;11.176;2023-06-14T03:23:42;13.20;1.00
4699;DHT22;33708;49.466;11.176;2023-06-14T03:26:08;13.20;1.00
4699;DHT22;33708;49.466;11.176;2023-06-14T03:28:34;13.20;1.00
4699;DHT22;33708;49.466;11.176;2023-06-14T03:31:00;13.30;1.00
4699;DHT22;33708;49.466;11.176;2023-06-14T03:33:25;13.30;1.00
4699;DHT22;33708;49.466;11.176;2023-06-14T03:35:51;13.80;1.00
4699;DHT22;33708;49.466;11.176;2023-06-14T03:38:17;14.20;1.00
4699;DHT22;33708;49.466;11.176;2023-06-14T03:40:42;14.60;1.00
4699;DHT22;33708;49.466;11.176;2023-06-14T03:43:09;14.50;1.00
4699;DHT22;33708;49.466;11.176;2023-06-14T03:45:35;15.00;1.00
4699;DHT22;33708;49.466;11.176;2023-06-14T03:48:01;15.60;1.00
4699;DHT22;33708;49.466;11.176;2023-06-14T03:50:32;16.00;1.00
4699;DHT22;33708;49.466;11.176;2023-06-14T03:52:57;15.80;1.00
4699;DHT22;33708;49.466;11.176;2023-06-14T03:55:23;16.30;1.00
4699;DHT22;33708;49.466;11.176;2023-06-14T03:57:51;17.00;1.00
4699;DHT22;33708;49.466;11.176;2023-06-14T04:00:17;17.20;1.00
4699;DHT22;33708;49.466;11.176;2023-06-14T04:02:43;17.40;1.00
4699;DHT22;33708;49.466;11.176;2023-06-14T04:05:09;17.60;1.00
4699;DHT22;33708;49.466;11.176;2023-06-14T04:07:35;18.40;1.00
4699;DHT22;33708;49.466;11.176;2023-06-14T04:10:11;18.60;1.00
4699;DHT22;33708;49.466;11.176;2023-06-14T04:12:37;18.90;1.00
4699;DHT22;33708;49.466;11.176;2023-06-14T04:15:03;19.20;1.00
4699;DHT22;33708;49.466;11.176;2023-06-14T04:17:31;18.70;1.00
4699;DHT22;33708;49.466;11.176;2023-06-14T04:19:58;17.30;1.00
4699;DHT22;33708;49.466;11.176;2023-06-14T04:22:25;18.00;1.00
4699;DHT22;33708;49.466;11.176;2023-06-14T04:24:54;18.60;1.00
4699;DHT22;33708;49.466;11.176;2023-06-14T04:27:22;18.40;1.00
4699;DHT22;33708;49.466;11.176;2023-06-14T04:29:52;19.30;1.00
4699;DHT22;33708;49.466;11.176;2023-06-14T04:32:23;20.00;1.00
4699;DHT22;33708;49.466;11.176;2023-06-14T04:34:51;19.70;1.00
4699;DHT22;33708;49.466;11.176;2023-06-14T04:37:19;20.10;1.00
4699;DHT22;33708;49.466;11.176;2023-06-14T04:39:46;21.10;1.00
4699;DHT22;33708;49.466;11.176;2023-06-14T04:42:12;21.00;1.00
4699;DHT22;33708;49.466;11.176;2023-06-14T04:44:41;22.20;1.00
4699;DHT22;33708;49.466;11.176;2023-06-14T04:47:07;22.20;1.00
4699;DHT22;33708;49.466;11.176;2023-06-14T04:49:32;22.00;1.00
4699;DHT22;33708;49.466;11.176;2023-06-14T04:51:59;19.30;1.00
4699;DHT22;33708;49.466;11.176;2023-06-14T04:54:27;17.40;1.00
4699;DHT22;33708;49.466;11.176;2023-06-14T04:56:53;16.80;1.00
4699;DHT22;33708;49.466;11.176;2023-06-14T04:59:21;16.40;1.00
4699;DHT22;33708;49.466;11.176;2023-06-14T05:01:51;16.20;1.00
4699;DHT22;33708;49.466;11.176;2023-06-14T05:04:19;16.20;1.00
4699;DHT22;33708;49.466;11.176;2023-06-14T05:06:45;15.80;1.00
4699;DHT22;33708;49.466;11.176;2023-06-14T05:09:14;16.40;1.00
4699;DHT22;33708;49.466;11.176;2023-06-14T05:11:41;15.80;1.00
4699;DHT22;33708;49.466;11.176;2023-06-14T05:14:11;16.00;1.00
4699;DHT22;33708;49.466;11.176;2023-06-14T05:16:36;15.90;1.00
4699;DHT22;33708;49.466;11.176;2023-06-14T05:19:03;16.20;1.00
4699;DHT22;33708;49.466;11.176;2023-06-14T05:21:29;15.90;1.00
4699;DHT22;33708;49.466;11.176;2023-06-14T05:23:55;16.00;1.00
4699;DHT22;33708;49.466;11.176;2023-06-14T05:26:21;16.40;1.00
4699;DHT22;33708;49.466;11.176;2023-06-14T05:28:49;16.60;1.00
4699;DHT22;33708;49.466;11.176;2023-06-14T05:31:15;16.60;1.00
4699;DHT22;33708;49.466;11.176;2023-06-14T05:33:41;17.00;1.00
4699;DHT22;33708;49.466;11.176;2023-06-14T05:36:06;17.10;1.00
4699;DHT22;33708;49.466;11.176;2023-06-14T05:38:32;17.30;1.00
4699;DHT22;33708;49.466;11.176;2023-06-14T05:40:58;17.70;1.00
4699;DHT22;33708;49.466;11.176;2023-06-14T05:43:24;17.80;1.00
4699;DHT22;33708;49.466;11.176;2023-06-14T05:45:50;19.00;1.00
4699;DHT22;33708;49.466;11.176;2023-06-14T05:48:16;22.00;1.00
4699;DHT22;33708;49.466;11.176;2023-06-14T05:50:41;24.60;1.00
4699;DHT22;33708;49.466;11.176;2023-06-14T05:53:07;23.90;1.00
4699;DHT22;33708;49.466;11.176;2023-06-14T05:55:32;24.50;1.00
4699;DHT22;33708;49.466;11.176;2023-06-14T05:57:58;26.20;1.00
4699;DHT22;33708;49.466;11.176;2023-06-14T06:00:23;26.80;1.00
4699;DHT22;33708;49.466;11.176;2023-06-14T06:02:49;24.00;1.00
4699;DHT22;33708;49.466;11.176;2023-06-14T06:05:15;25.20;1.00
4699;DHT22;33708;49.466;11.176;2023-06-14T06:07:41;26.90;1.00
4699;DHT22;33708;49.466;11.176;2023-06-14T06:10:07;29.20;1.00
4699;DHT22;33708;49.466;11.176;2023-06-14T06:12:33;28.30;1.00
4699;DHT22;33708;49.466;11.176;2023-06-14T06:14:59;28.80;1.00
4699;DHT22;33708;49.466;11.176;2023-06-14T06:17:28;26.50;1.00
4699;DHT22;33708;49.466;11.176;2023-06-14T06:19:54;27.90;1.00
4699;DHT22;33708;49.466;11.176;2023-06-14T06:22:19;28.10;1.00
4699;DHT22;33708;49.466;11.176;2023-06-14T06:24:45;29.60;1.00
4699;DHT22;33708;49.466;11.176;2023-06-14T06:27:11;29.20;1.00
4699;DHT22;33708;49.466;11.176;2023-06-14T06:29:38;29.00;1.00
4699;DHT22;33708;49.466;11.176;2023-06-14T06:32:03;29.40;1.00
4699;DHT22;33708;49.466;11.176;2023-06-14T06:34:29;27.40;1.00
4699;DHT22;33708;49.466;11.176;2023-06-14T06:36:58;23.50;1.00
4699;DHT22;33708;49.466;11.176;2023-06-14T06:39:24;23.40;1.00
4699;DHT22;33708;49.466;11.176;2023-06-14T06:41:49;22.70;1.00
4699;DHT22;33708;49.466;11.176;2023-06-14T06:44:15;22.70;1.00
4699;DHT22;33708;49.466;11.176;2023-06-14T06:46:40;21.60;1.00
4699;DHT22;33708;49.466;11.176;2023-06-14T06:49:08;20.60;1.00
4699;DHT22;33708;49.466;11.176;2023-06-14T06:51:40;22.00;1.00
4699;DHT22;33708;49.466;11.176;2023-06-14T06:54:07;22.20;1.00
4699;DHT22;33708;49.466;11.176;2023-06-14T06:56:33;22.40;1.00
4699;DHT22;33708;49.466;11.176;2023-06-14T06:58:59;25.60;1.00
4699;DHT22;33708;49.466;11.176;2023-06-14T07:01:25;25.90;1.00
4699;DHT22;33708;49.466;11.176;2023-06-14T07:03:51;24.60;1.00
4699;DHT22;33708;49.466;11.176;2023-06-14T07:06:20;28.00;1.00
4699;DHT22;33708;49.466;11.176;2023-06-14T07:08:46;28.10;1.00
4699;DHT22;33708;49.466;11.176;2023-06-14T07:11:14;28.70;1.00
4699;DHT22;33708;49.466;11.176;2023-06-14T07:13:39;27.90;1.00
4699;DHT22;33708;49.466;11.176;2023-06-14T07:16:05;26.10;1.00
4699;DHT22;33708;49.466;11.176;2023-06-14T07:18:31;27.80;1.00
4699;DHT22;33708;49.466;11.176;2023-06-14T07:20:57;27.30;1.00
4699;DHT22;33708;49.466;11.176;2023-06-14T07:23:23;29.20;1.00
4699;DHT22;33708;49.466;11.176;2023-06-14T07:25:49;29.00;1.00
4699;DHT22;33708;49.466;11.176;2023-06-14T07:28:16;30.60;1.00
4699;DHT22;33708;49.466;11.176;2023-06-14T07:30:41;29.20;1.00
4699;DHT22;33708;49.466;11.176;2023-06-14T07:33:07;30.90;1.00
4699;DHT22;33708;49.466;11.176;2023-06-14T07:35:33;31.60;1.00
4699;DHT22;33708;49.466;11.176;2023-06-14T07:37:59;31.40;1.00
4699;DHT22;33708;49.466;11.176;2023-06-14T07:40:25;30.30;1.00
4699;DHT22;33708;49.466;11.176;2023-06-14T07:42:50;28.70;1.00
4699;DHT22;33708;49.466;11.176;2023-06-14T07:45:16;30.40;1.00
4699;DHT22;33708;49.466;11.176;2023-06-14T07:47:42;31.50;1.00
4699;DHT22;33708;49.466;11.176;2023-06-14T07:50:08;29.50;1.00
4699;DHT22;33708;49.466;11.176;2023-06-14T07:52:34;32.30;1.00
4699;DHT22;33708;49.466;11.176;2023-06-14T07:55:00;31.70;1.00
4699;DHT22;33708;49.466;11.176;2023-06-14T07:57:25;29.20;1.00
4699;DHT22;33708;49.466;11.176;2023-06-14T07:59:51;30.10;1.00
4699;DHT22;33708;49.466;11.176;2023-06-14T08:02:16;30.10;1.00
4699;DHT22;33708;49.466;11.176;2023-06-14T08:04:43;30.10;1.00
4699;DHT22;33708;49.466;11.176;2023-06-14T08:07:08;30.10;1.00
4699;DHT22;33708;49.466;11.176;2023-06-14T08:09:35;29.50;1.00
4699;DHT22;33708;49.466;11.176;2023-06-14T08:12:04;30.70;1.00
4699;DHT22;33708;49.466;11.176;2023-06-14T08:14:30;30.50;1.00
4699;DHT22;33708;49.466;11.176;2023-06-14T08:16:56;28.10;1.00
4699;DHT22;33708;49.466;11.176;2023-06-14T08:19:22;28.40;1.00
4699;DHT22;33708;49.466;11.176;2023-06-14T08:21:48;29.70;1.00
4699;DHT22;33708;49.466;11.176;2023-06-14T08:24:13;29.50;1.00
4699;DHT22;33708;49.466;11.176;2023-06-14T08:26:39;31.30;1.00
4699;DHT22;33708;49.466;11.176;2023-06-14T08:29:05;30.60;1.00
4699;DHT22;33708;49.466;11.176;2023-06-14T08:31:34;32.60;1.00
4699;DHT22;33708;49.466;11.176;2023-06-14T08:33:59;30.70;1.00
4699;DHT22;33708;49.466;11.176;2023-06-14T08:36:25;32.40;1.00
4699;DHT22;33708;49.466;11.176;2023-06-14T08:38:50;31.60;1.00
4699;DHT22;33708;49.466;11.176;2023-06-14T08:41:25;31.10;1.00
4699;DHT22;33708;49.466;11.176;2023-06-14T08:43:52;29.60;1.00
4699;DHT22;33708;49.466;11.176;2023-06-14T08:46:18;31.50;1.00
4699;DHT22;33708;49.466;11.176;2023-06-14T08:48:51;30.50;1.00
4699;DHT22;33708;49.466;11.176;2023-06-14T08:51:21;32.20;1.00
4699;DHT22;33708;49.466;11.176;2023-06-14T08:53:57;31.30;1.00
4699;DHT22;33708;49.466;11.176;2023-06-14T08:56:27;29.90;1.00
4699;DHT22;33708;49.466;11.176;2023-06-14T08:58:57;28.00;1.00
4699;DHT22;33708;49.466;11.176;2023-06-14T09:01:26;27.60;1.00
4699;DHT22;33708;49.466;11.176;2023-06-14T09:03:52;30.50;1.00
4699;DHT22;33708;49.466;11.176;2023-06-14T09:06:21;29.70;1.00
4699;DHT22;33708;49.466;11.176;2023-06-14T09:08:48;29.20;1.00
4699;DHT22;33708;49.466;11.176;2023-06-14T09:11:16;28.70;1.00
4699;DHT22;33708;49.466;11.176;2023-06-14T09:13:45;29.40;1.00
4699;DHT22;33708;49.466;11.176;2023-06-14T09:16:11;31.00;1.00
4699;DHT22;33708;49.466;11.176;2023-06-14T09:21:10;27.60;1.00
4699;DHT22;33708;49.466;11.176;2023-06-14T09:23:40;26.80;1.00
4699;DHT22;33708;49.466;11.176;2023-06-14T09:26:08;27.90;1.00
4699;DHT22;33708;49.466;11.176;2023-06-14T09:28:34;29.40;1.00
4699;DHT22;33708;49.466;11.176;2023-06-14T09:31:00;28.00;1.00
4699;DHT22;33708;49.466;11.176;2023-06-14T09:33:26;26.40;1.00
4699;DHT22;33708;49.466;11.176;2023-06-14T09:35:54;25.20;1.00
4699;DHT22;33708;49.466;11.176;2023-06-14T09:38:20;27.60;1.00
4699;DHT22;33708;49.466;11.176;2023-06-14T09:40:46;26.10;1.00
4699;DHT22;33708;49.466;11.176;2023-06-14T09:43:11;24.70;1.00
4699;DHT22;33708;49.466;11.176;2023-06-14T09:45:38;24.10;1.00
4699;DHT22;33708;49.466;11.176;2023-06-14T09:48:11;24.70;1.00
4699;DHT22;33708;49.466;11.176;2023-06-14T09:50:37;26.40;1.00
4699;DHT22;33708;49.466;11.176;2023-06-14T09:53:09;24.80;1.00
4699;DHT22;33708;49.466;11.176;2023-06-14T09:55:37;24.50;1.00
4699;DHT22;33708;49.466;11.176;2023-06-14T09:58:05;24.00;1.00
4699;DHT22;33708;49.466;11.176;2023-06-14T10:00:32;23.90;1.00
4699;DHT22;33708;49.466;11.176;2023-06-14T10:03:05;24.30;1.00
4699;DHT22;33708;49.466;11.176;2023-06-14T10:05:32;24.40;1.00
4699;DHT22;33708;49.466;11.176;2023-06-14T10:08:10;24.40;1.00
4699;DHT22;33708;49.466;11.176;2023-06-14T10:10:39;24.60;1.00
4699;DHT22;33708;49.466;11.176;2023-06-14T10:13:06;24.20;1.00
4699;DHT22;33708;49.466;11.176;2023-06-14T10:15:45;24.40;1.00
4699;DHT22;33708;49.466;11.176;2023-06-14T10:18:47;24.70;1.00
4699;DHT22;33708;49.466;11.176;2023-06-14T10:21:22;24.20;1.00
4699;DHT22;33708;49.466;11.176;2023-06-14T10:23:51;24.20;1.00
4699;DHT22;33708;49.466;11.176;2023-06-14T10:26:20;22.80;1.00
4699;DHT22;33708;49.466;11.176;2023-06-14T10:29:00;23.60;1.00
4699;DHT22;33708;49.466;11.176;2023-06-14T10:31:47;23.70;1.00
4699;DHT22;33708;49.466;11.176;2023-06-14T10:34:24;23.80;1.00
4699;DHT22;33708;49.466;11.176;2023-06-14T10:39:28;24.60;1.00
4699;DHT22;33708;49.466;11.176;2023-06-14T10:41:55;24.00;1.00
4699;DHT22;33708;49.466;11.176;2023-06-14T10:49:12;24.70;1.00
4699;DHT22;33708;49.466;11.176;2023-06-14T10:51:39;26.00;1.00
4699;DHT22;33708;49.466;11.176;2023-06-14T10:54:13;25.30;1.00
4699;DHT22;33708;49.466;11.176;2023-06-14T10:56:49;25.10;1.00
4699;DHT22;33708;49.466;11.176;2023-06-14T10:59:16;24.80;1.00
4699;DHT22;33708;49.466;11.176;2023-06-14T11:02:07;24.80;1.00
4699;DHT22;33708;49.466;11.176;2023-06-14T11:10:37;25.90;1.00
4699;DHT22;33708;49.466;11.176;2023-06-14T11:13:03;25.10;1.00
4699;DHT22;33708;49.466;11.176;2023-06-14T11:15:33;25.30;1.00
4699;DHT22;33708;49.466;11.176;2023-06-14T11:18:06;25.30;1.00
4699;DHT22;33708;49.466;11.176;2023-06-14T11:20:35;25.00;1.00
4699;DHT22;33708;49.466;11.176;2023-06-14T11:23:02;25.60;1.00
4699;DHT22;33708;49.466;11.176;2023-06-14T11:25:28;26.10;1.00
4699;DHT22;33708;49.466;11.176;2023-06-14T11:27:54;25.10;1.00
4699;DHT22;33708;49.466;11.176;2023-06-14T11:30:21;25.00;1.00
4699;DHT22;33708;49.466;11.176;2023-06-14T11:32:51;25.30;1.00
4699;DHT22;33708;49.466;11.176;2023-06-14T11:35:17;25.30;1.00
4699;DHT22;33708;49.466;11.176;2023-06-14T11:37:43;25.10;1.00
4699;DHT22;33708;49.466;11.176;2023-06-14T11:40:13;25.30;1.00
4699;DHT22;33708;49.466;11.176;2023-06-14T11:42:40;25.30;1.00
4699;DHT22;33708;49.466;11.176;2023-06-14T11:45:10;25.20;1.00
4699;DHT22;33708;49.466;11.176;2023-06-14T11:47:37;24.60;1.00
4699;DHT22;33708;49.466;11.176;2023-06-14T11:50:04;25.20;1.00
4699;DHT22;33708;49.466;11.176;2023-06-14T11:52:31;25.00;1.00
4699;DHT22;33708;49.466;11.176;2023-06-14T11:54:57;25.10;1.00
4699;DHT22;33708;49.466;11.176;2023-06-14T11:57:24;25.30;1.00
4699;DHT22;33708;49.466;11.176;2023-06-14T11:59:49;26.00;1.00
4699;DHT22;33708;49.466;11.176;2023-06-14T12:02:16;26.10;1.00
4699;DHT22;33708;49.466;11.176;2023-06-14T12:04:42;24.90;1.00
4699;DHT22;33708;49.466;11.176;2023-06-14T12:07:10;25.10;1.00
4699;DHT22;33708;49.466;11.176;2023-06-14T12:12:25;24.70;1.00
4699;DHT22;33708;49.466;11.176;2023-06-14T12:14:51;25.90;1.00
4699;DHT22;33708;49.466;11.176;2023-06-14T12:17:17;26.40;1.00
4699;DHT22;33708;49.466;11.176;2023-06-14T12:19:44;27.30;1.00
4699;DHT22;33708;49.466;11.176;2023-06-14T12:22:11;26.60;1.00
4699;DHT22;33708;49.466;11.176;2023-06-14T12:24:37;26.70;1.00
4699;DHT22;33708;49.466;11.176;2023-06-14T12:27:04;25.50;1.00
4699;DHT22;33708;49.466;11.176;2023-06-14T12:29:30;27.30;1.00
4699;DHT22;33708;49.466;11.176;2023-06-14T12:31:56;27.20;1.00
4699;DHT22;33708;49.466;11.176;2023-06-14T12:34:28;25.40;1.00
4699;DHT22;33708;49.466;11.176;2023-06-14T12:36:54;26.30;1.00
4699;DHT22;33708;49.466;11.176;2023-06-14T12:39:20;26.50;1.00
4699;DHT22;33708;49.466;11.176;2023-06-14T12:41:47;27.00;1.00
4699;DHT22;33708;49.466;11.176;2023-06-14T12:44:16;26.40;1.00
4699;DHT22;33708;49.466;11.176;2023-06-14T12:46:42;26.40;1.00
4699;DHT22;33708;49.466;11.176;2023-06-14T12:49:12;25.80;1.00
4699;DHT22;33708;49.466;11.176;2023-06-14T12:51:39;25.40;1.00
4699;DHT22;33708;49.466;11.176;2023-06-14T12:54:05;25.80;1.00
4699;DHT22;33708;49.466;11.176;2023-06-14T12:56:31;26.10;1.00
4699;DHT22;33708;49.466;11.176;2023-06-14T12:58:58;26.40;1.00
4699;DHT22;33708;49.466;11.176;2023-06-14T13:01:23;26.10;1.00
4699;DHT22;33708;49.466;11.176;2023-06-14T13:03:49;27.20;1.00
4699;DHT22;33708;49.466;11.176;2023-06-14T13:06:17;27.30;1.00
4699;DHT22;33708;49.466;11.176;2023-06-14T13:08:43;27.40;1.00
4699;DHT22;33708;49.466;11.176;2023-06-14T13:11:09;26.80;1.00
4699;DHT22;33708;49.466;11.176;2023-06-14T13:13:34;25.30;1.00
4699;DHT22;33708;49.466;11.176;2023-06-14T13:16:00;25.10;1.00
4699;DHT22;33708;49.466;11.176;2023-06-14T13:18:26;25.00;1.00
4699;DHT22;33708;49.466;11.176;2023-06-14T13:20:51;25.30;1.00
4699;DHT22;33708;49.466;11.176;2023-06-14T13:23:17;25.30;1.00
4699;DHT22;33708;49.466;11.176;2023-06-14T13:25:43;24.90;1.00
4699;DHT22;33708;49.466;11.176;2023-06-14T13:28:09;25.00;1.00
4699;DHT22;33708;49.466;11.176;2023-06-14T13:30:35;24.80;1.00
4699;DHT22;33708;49.466;11.176;2023-06-14T13:33:01;25.00;1.00
4699;DHT22;33708;49.466;11.176;2023-06-14T13:35:27;25.30;1.00
4699;DHT22;33708;49.466;11.176;2023-06-14T13:37:53;25.90;1.00
4699;DHT22;33708;49.466;11.176;2023-06-14T13:40:18;25.90;1.00
4699;DHT22;33708;49.466;11.176;2023-06-14T13:42:45;24.80;1.00
4699;DHT22;33708;49.466;11.176;2023-06-14T13:45:12;25.00;1.00
4699;DHT22;33708;49.466;11.176;2023-06-14T13:47:38;25.10;1.00
4699;DHT22;33708;49.466;11.176;2023-06-14T13:50:05;24.70;1.00
4699;DHT22;33708;49.466;11.176;2023-06-14T13:52:31;24.90;1.00
4699;DHT22;33708;49.466;11.176;2023-06-14T13:54:56;25.50;1.00
4699;DHT22;33708;49.466;11.176;2023-06-14T13:57:22;25.50;1.00
4699;DHT22;33708;49.466;11.176;2023-06-14T13:59:48;26.00;1.00
4699;DHT22;33708;49.466;11.176;2023-06-14T14:02:14;25.60;1.00
4699;DHT22;33708;49.466;11.176;2023-06-14T14:04:40;25.80;1.00
4699;DHT22;33708;49.466;11.176;2023-06-14T14:07:06;26.60;1.00
4699;DHT22;33708;49.466;11.176;2023-06-14T14:09:33;27.20;1.00
4699;DHT22;33708;49.466;11.176;2023-06-14T14:12:00;27.00;1.00
4699;DHT22;33708;49.466;11.176;2023-06-14T14:14:27;27.20;1.00
4699;DHT22;33708;49.466;11.176;2023-06-14T14:16:53;27.00;1.00
4699;DHT22;33708;49.466;11.176;2023-06-14T14:19:20;26.50;1.00
4699;DHT22;33708;49.466;11.176;2023-06-14T14:21:46;26.40;1.00
4699;DHT22;33708;49.466;11.176;2023-06-14T14:24:12;27.30;1.00
4699;DHT22;33708;49.466;11.176;2023-06-14T14:26:37;27.20;1.00
4699;DHT22;33708;49.466;11.176;2023-06-14T14:29:03;25.70;1.00
4699;DHT22;33708;49.466;11.176;2023-06-14T14:31:30;25.50;1.00
4699;DHT22;33708;49.466;11.176;2023-06-14T14:33:55;25.10;1.00
4699;DHT22;33708;49.466;11.176;2023-06-14T14:36:21;24.70;1.00
4699;DHT22;33708;49.466;11.176;2023-06-14T14:38:47;24.80;1.00
4699;DHT22;33708;49.466;11.176;2023-06-14T14:41:13;24.70;1.00
4699;DHT22;33708;49.466;11.176;2023-06-14T14:43:39;24.70;1.00
4699;DHT22;33708;49.466;11.176;2023-06-14T14:46:05;24.70;1.00
4699;DHT22;33708;49.466;11.176;2023-06-14T14:48:31;24.50;1.00
4699;DHT22;33708;49.466;11.176;2023-06-14T14:50:57;24.40;1.00
4699;DHT22;33708;49.466;11.176;2023-06-14T14:53:22;24.40;1.00
4699;DHT22;33708;49.466;11.176;2023-06-14T14:55:48;24.90;1.00
4699;DHT22;33708;49.466;11.176;2023-06-14T14:58:14;25.00;1.00
4699;DHT22;33708;49.466;11.176;2023-06-14T15:00:46;24.90;1.00
4699;DHT22;33708;49.466;11.176;2023-06-14T15:03:12;24.60;1.00
4699;DHT22;33708;49.466;11.176;2023-06-14T15:05:38;24.90;1.00
4699;DHT22;33708;49.466;11.176;2023-06-14T15:08:04;24.80;1.00
4699;DHT22;33708;49.466;11.176;2023-06-14T15:10:35;25.00;1.00
4699;DHT22;33708;49.466;11.176;2023-06-14T15:13:01;24.90;1.00
4699;DHT22;33708;49.466;11.176;2023-06-14T15:15:26;25.00;1.00
4699;DHT22;33708;49.466;11.176;2023-06-14T15:17:52;24.90;1.00
4699;DHT22;33708;49.466;11.176;2023-06-14T15:20:18;24.90;1.00
4699;DHT22;33708;49.466;11.176;2023-06-14T15:22:43;24.60;1.00
4699;DHT22;33708;49.466;11.176;2023-06-14T15:25:09;24.70;1.00
4699;DHT22;33708;49.466;11.176;2023-06-14T15:27:34;24.70;1.00
4699;DHT22;33708;49.466;11.176;2023-06-14T15:30:01;24.90;1.00
4699;DHT22;33708;49.466;11.176;2023-06-14T15:32:26;24.60;1.00
4699;DHT22;33708;49.466;11.176;2023-06-14T15:34:52;24.70;1.00
4699;DHT22;33708;49.466;11.176;2023-06-14T15:37:18;24.80;1.00
4699;DHT22;33708;49.466;11.176;2023-06-14T15:39:43;24.90;1.00
4699;DHT22;33708;49.466;11.176;2023-06-14T15:42:09;24.80;1.00
4699;DHT22;33708;49.466;11.176;2023-06-14T15:44:35;24.70;1.00
4699;DHT22;33708;49.466;11.176;2023-06-14T15:47:01;24.90;1.00
4699;DHT22;33708;49.466;11.176;2023-06-14T15:49:27;25.60;1.00
4699;DHT22;33708;49.466;11.176;2023-06-14T15:51:53;25.40;1.00
4699;DHT22;33708;49.466;11.176;2023-06-14T15:54:18;25.30;1.00
4699;DHT22;33708;49.466;11.176;2023-06-14T15:56:44;25.40;1.00
4699;DHT22;33708;49.466;11.176;2023-06-14T15:59:10;25.30;1.00
4699;DHT22;33708;49.466;11.176;2023-06-14T16:01:36;25.30;1.00
4699;DHT22;33708;49.466;11.176;2023-06-14T16:04:01;25.20;1.00
4699;DHT22;33708;49.466;11.176;2023-06-14T16:06:27;24.90;1.00